Observation data for Fluvanna on 07/11/2018      Previous  Date       Current Mesonet Observations  Soil Data  Daily Summary Page  Observations in Plain Language
KFVS 110500Z 13009KT 25/16 A3012 RMK A01 T02480162  RH  062%=      5-min Rain = 0
KFVS 110505Z 13008KT 25/16 A3012 RMK A01 T02470162  RH  062%=      5-min Rain = 0
KFVS 110510Z 13007KT 25/16 A3012 RMK A01 T02460162  RH  063%=      5-min Rain = 0
KFVS 110515Z 13007KT 24/16 A3012 RMK A01 T02430163  RH  064%=      5-min Rain = 0
KFVS 110520Z 14006KT 24/16 A3012 RMK A01 T02430163  RH  064%=      5-min Rain = 0
KFVS 110525Z 14006KT 24/16 A3012 RMK A01 T02400163  RH  065%=      5-min Rain = 0
KFVS 110530Z 13007KT 24/16 A3012 RMK A01 T02380163  RH  066%=      5-min Rain = 0
KFVS 110535Z 13006KT 24/16 A3012 RMK A01 T02370163  RH  066%=      5-min Rain = 0
KFVS 110540Z 12006KT 24/16 A3012 RMK A01 T02360163  RH  067%=      5-min Rain = 0
KFVS 110545Z 13006KT 24/16 A3012 RMK A01 T02370164  RH  067%=      5-min Rain = 0
KFVS 110550Z 12006KT 24/16 A3011 RMK A01 T02370164  RH  067%=      5-min Rain = 0
KFVS 110555Z 12005KT 23/16 A3012 RMK A01 T02340163  RH  067%=      5-min Rain = 0
KFVS 110600Z 12006KT 23/16 A3012 RMK A01 T02310162  RH  069%=      5-min Rain = 0
KFVS 110605Z 12006KT 23/16 A3012 RMK A01 T02300162  RH  069%=      5-min Rain = 0
KFVS 110610Z 13005KT 23/16 A3012 RMK A01 T02300162  RH  069%=      5-min Rain = 0
KFVS 110615Z 13005KT 23/16 A3012 RMK A01 T02290162  RH  069%=      5-min Rain = 0
KFVS 110620Z 13006KT 23/16 A3012 RMK A01 T02290163  RH  069%=      5-min Rain = 0
KFVS 110625Z 13006KT 23/16 A3012 RMK A01 T02310164  RH  069%=      5-min Rain = 0
KFVS 110630Z 14007KT 23/17 A3012 RMK A01 T02330165  RH  069%=      5-min Rain = 0
KFVS 110635Z 14007KT 23/17 A3011 RMK A01 T02340165  RH  069%=      5-min Rain = 0
KFVS 110640Z 14007KT 23/17 A3012 RMK A01 T02330165  RH  069%=      5-min Rain = 0
KFVS 110645Z 14008KT 23/17 A3012 RMK A01 T02330166  RH  069%=      5-min Rain = 0
KFVS 110650Z 15006KT 23/17 A3012 RMK A01 T02320166  RH  069%=      5-min Rain = 0
KFVS 110655Z 15006KT 23/17 A3012 RMK A01 T02310166  RH  070%=      5-min Rain = 0
KFVS 110700Z 15006KT 23/17 A3012 RMK A01 T02290166  RH  071%=      5-min Rain = 0
KFVS 110705Z 14006KT 23/17 A3012 RMK A01 T02270166  RH  072%=      5-min Rain = 0
KFVS 110710Z 16005KT 22/17 A3012 RMK A01 T02240166  RH  073%=      5-min Rain = 0
KFVS 110715Z 19003KT 22/16 A3012 RMK A01 T02230163  RH  072%=      5-min Rain = 0
KFVS 110720Z 22002KT 22/16 A3012 RMK A01 T02220161  RH  072%=      5-min Rain = 0
KFVS 110725Z 16002KT 22/17 A3012 RMK A01 T02230165  RH  073%=      5-min Rain = 0
KFVS 110730Z 14003KT 22/17 A3012 RMK A01 T02230165  RH  073%=      5-min Rain = 0
KFVS 110735Z 14003KT 22/17 A3012 RMK A01 T02230165  RH  073%=      5-min Rain = 0
KFVS 110740Z 15003KT 22/17 A3012 RMK A01 T02210165  RH  074%=      5-min Rain = 0
KFVS 110745Z 15004KT 22/17 A3012 RMK A01 T02190165  RH  075%=      5-min Rain = 0
KFVS 110750Z 14004KT 22/16 A3012 RMK A01 T02170164  RH  076%=      5-min Rain = 0
KFVS 110755Z 14004KT 21/16 A3012 RMK A01 T02140164  RH  077%=      5-min Rain = 0
KFVS 110800Z 15004KT 21/17 A3012 RMK A01 T02140165  RH  077%=      5-min Rain = 0
KFVS 110805Z 14003KT 21/16 A3012 RMK A01 T02120164  RH  077%=      5-min Rain = 0
KFVS 110810Z 12003KT 21/16 A3012 RMK A01 T02100163  RH  078%=      5-min Rain = 0
KFVS 110815Z 12003KT 21/16 A3012 RMK A01 T02080162  RH  079%=      5-min Rain = 0
KFVS 110820Z 12003KT 21/16 A3012 RMK A01 T02070162  RH  079%=      5-min Rain = 0
KFVS 110825Z 12003KT 21/16 A3012 RMK A01 T02060161  RH  079%=      5-min Rain = 0
KFVS 110830Z 12004KT 21/16 A3012 RMK A01 T02060160  RH  079%=      5-min Rain = 0
KFVS 110835Z 12004KT 21/16 A3012 RMK A01 T02050159  RH  079%=      5-min Rain = 0
KFVS 110840Z 13005KT 20/16 A3011 RMK A01 T02040160  RH  079%=      5-min Rain = 0
KFVS 110845Z 14006KT 20/16 A3011 RMK A01 T02040159  RH  079%=      5-min Rain = 0
KFVS 110850Z 14007KT 21/16 A3011 RMK A01 T02050161  RH  080%=      5-min Rain = 0
KFVS 110855Z 15006KT 21/16 A3011 RMK A01 T02050162  RH  080%=      5-min Rain = 0
KFVS 110900Z 15006KT 21/16 A3012 RMK A01 T02060162  RH  080%=      5-min Rain = 0
KFVS 110905Z 15006KT 21/16 A3012 RMK A01 T02060162  RH  079%=      5-min Rain = 0
KFVS 110910Z 14006KT 21/16 A3012 RMK A01 T02050161  RH  080%=      5-min Rain = 0
KFVS 110915Z 14006KT 21/16 A3012 RMK A01 T02050161  RH  080%=      5-min Rain = 0
KFVS 110920Z 14006KT 21/16 A3012 RMK A01 T02050161  RH  080%=      5-min Rain = 0
KFVS 110925Z 14006KT 20/16 A3012 RMK A01 T02040161  RH  080%=      5-min Rain = 0
KFVS 110930Z 14005KT 21/16 A3012 RMK A01 T02050161  RH  080%=      5-min Rain = 0
KFVS 110935Z 14006KT 21/16 A3012 RMK A01 T02060161  RH  079%=      5-min Rain = 0
KFVS 110940Z 14006KT 21/16 A3012 RMK A01 T02060161  RH  079%=      5-min Rain = 0
KFVS 110945Z 14006KT 21/16 A3012 RMK A01 T02050161  RH  079%=      5-min Rain = 0
KFVS 110950Z 14006KT 20/16 A3012 RMK A01 T02040160  RH  080%=      5-min Rain = 0
KFVS 110955Z 14006KT 20/16 A3012 RMK A01 T02030161  RH  080%=      5-min Rain = 0
KFVS 111000Z 14007KT 20/16 A3012 RMK A01 T02030161  RH  081%=      5-min Rain = 0
KFVS 111005Z 14007KT 20/16 A3012 RMK A01 T02040161  RH  080%=      5-min Rain = 0
KFVS 111010Z 14006KT 20/16 A3012 RMK A01 T02040161  RH  080%=      5-min Rain = 0
KFVS 111015Z 14006KT 20/16 A3012 RMK A01 T02040161  RH  080%=      5-min Rain = 0
KFVS 111020Z 14006KT 20/16 A3012 RMK A01 T02040161  RH  080%=      5-min Rain = 0
KFVS 111025Z 14006KT 21/16 A3012 RMK A01 T02050161  RH  080%=      5-min Rain = 0
KFVS 111030Z 15005KT 21/16 A3012 RMK A01 T02050160  RH  079%=      5-min Rain = 0
KFVS 111035Z 15005KT 21/16 A3012 RMK A01 T02050159  RH  079%=      5-min Rain = 0
KFVS 111040Z 15005KT 20/16 A3012 RMK A01 T02040159  RH  079%=      5-min Rain = 0
KFVS 111045Z 14005KT 20/16 A3012 RMK A01 T02030158  RH  079%=      5-min Rain = 0
KFVS 111050Z 15005KT 20/16 A3012 RMK A01 T02040158  RH  078%=      5-min Rain = 0
KFVS 111055Z 16005KT 20/16 A3012 RMK A01 T02040157  RH  078%=      5-min Rain = 0
KFVS 111100Z 16006KT 20/16 A3012 RMK A01 T02030155  RH  078%=      5-min Rain = 0
KFVS 111105Z 16006KT 20/15 A3012 RMK A01 T02020154  RH  077%=      5-min Rain = 0
KFVS 111110Z 16007KT 20/15 A3012 RMK A01 T02040153  RH  076%=      5-min Rain = 0
KFVS 111115Z 17007KT 20/15 A3012 RMK A01 T02040153  RH  076%=      5-min Rain = 0
KFVS 111120Z 17007KT 21/15 A3012 RMK A01 T02060152  RH  074%=      5-min Rain = 0
KFVS 111125Z 17007KT 21/15 A3012 RMK A01 T02100151  RH  072%=      5-min Rain = 0
KFVS 111130Z 17007KT 21/15 A3012 RMK A01 T02130150  RH  070%=      5-min Rain = 0
KFVS 111135Z 17008KT 22/15 A3012 RMK A01 T02150150  RH  069%=      5-min Rain = 0
KFVS 111140Z 17008KT 22/15 A3012 RMK A01 T02150150  RH  069%=      5-min Rain = 0
KFVS 111145Z 17007KT 22/15 A3012 RMK A01 T02150149  RH  069%=      5-min Rain = 0
KFVS 111150Z 17007KT 21/15 A3012 RMK A01 T02140149  RH  070%=      5-min Rain = 0
KFVS 111155Z 18007KT 21/15 A3013 RMK A01 T02120149  RH  070%=      5-min Rain = 0
KFVS 111200Z 17007KT 21/15 A3013 RMK A01 T02110149  RH  071%=      5-min Rain = 0
KFVS 111205Z 17006KT 21/15 A3013 RMK A01 T02110149  RH  071%=      5-min Rain = 0
KFVS 111210Z 16006KT 21/15 A3013 RMK A01 T02120150  RH  071%=      5-min Rain = 0
KFVS 111215Z 16006KT 21/15 A3013 RMK A01 T02130151  RH  071%=      5-min Rain = 0
KFVS 111220Z 16007KT 21/15 A3013 RMK A01 T02130151  RH  071%=      5-min Rain = 0
KFVS 111225Z 16007KT 22/15 A3013 RMK A01 T02150151  RH  070%=      5-min Rain = 0
KFVS 111230Z 16007KT 22/15 A3013 RMK A01 T02170152  RH  069%=      5-min Rain = 0
KFVS 111235Z 16007KT 22/15 A3013 RMK A01 T02180151  RH  069%=      5-min Rain = 0
KFVS 111240Z 16008KT 22/15 A3013 RMK A01 T02200151  RH  068%=      5-min Rain = 0
KFVS 111245Z 16007KT 22/15 A3014 RMK A01 T02220151  RH  067%=      5-min Rain = 0
KFVS 111250Z 16007KT 22/15 A3014 RMK A01 T02240151  RH  066%=      5-min Rain = 0
KFVS 111255Z 16007KT 23/15 A3014 RMK A01 T02260150  RH  065%=      5-min Rain = 0
KFVS 111300Z 15007KT 23/15 A3014 RMK A01 T02290150  RH  064%=      5-min Rain = 0
KFVS 111305Z 16007KT 23/15 A3014 RMK A01 T02310152  RH  064%=      5-min Rain = 0
KFVS 111310Z 16007KT 23/15 A3014 RMK A01 T02330153  RH  064%=      5-min Rain = 0
KFVS 111315Z 16009KT 24/15 A3014 RMK A01 T02350154  RH  063%=      5-min Rain = 0
KFVS 111320Z 17008KT 24/16 A3014 RMK A01 T02370156  RH  063%=      5-min Rain = 0
KFVS 111325Z 17009KT 24/16 A3014 RMK A01 T02390156  RH  063%=      5-min Rain = 0
KFVS 111330Z 17009KT 24/16 A3014 RMK A01 T02420157  RH  062%=      5-min Rain = 0
KFVS 111335Z 17010KT 24/16 A3014 RMK A01 T02430158  RH  062%=      5-min Rain = 0
KFVS 111340Z 18011KT 24/16 A3014 RMK A01 T02440159  RH  062%=      5-min Rain = 0
KFVS 111345Z 18011KT 25/16 A3014 RMK A01 T02450160  RH  062%=      5-min Rain = 0
KFVS 111350Z 18011KT 25/16 A3014 RMK A01 T02460161  RH  062%=      5-min Rain = 0
KFVS 111355Z 18011KT 25/16 A3015 RMK A01 T02470162  RH  062%=      5-min Rain = 0
KFVS 111400Z 18011KT 25/16 A3015 RMK A01 T02500163  RH  061%=      5-min Rain = 0
KFVS 111405Z 18011KT 25/16 A3015 RMK A01 T02500163  RH  061%=      5-min Rain = 0
KFVS 111410Z 19011KT 25/16 A3015 RMK A01 T02510163  RH  061%=      5-min Rain = 0
KFVS 111415Z 19011KT 25/16 A3015 RMK A01 T02520164  RH  061%=      5-min Rain = 0
KFVS 111420Z 19011KT 25/17 A3015 RMK A01 T02540165  RH  060%=      5-min Rain = 0
KFVS 111425Z 19011KT 26/17 A3015 RMK A01 T02560165  RH  060%=      5-min Rain = 0
KFVS 111430Z 19011KT 26/17 A3015 RMK A01 T02580166  RH  060%=      5-min Rain = 0
KFVS 111435Z 19012KT 26/17 A3015 RMK A01 T02610165  RH  059%=      5-min Rain = 0
KFVS 111440Z 19011KT 26/17 A3015 RMK A01 T02640166  RH  058%=      5-min Rain = 0
KFVS 111445Z 19011KT 27/17 A3015 RMK A01 T02650165  RH  057%=      5-min Rain = 0
KFVS 111450Z 19012KT 27/17 A3015 RMK A01 T02650165  RH  057%=      5-min Rain = 0
KFVS 111455Z 19011KT 27/17 A3015 RMK A01 T02660165  RH  057%=      5-min Rain = 0
KFVS 111500Z 19010KT 27/17 A3015 RMK A01 T02660166  RH  057%=      5-min Rain = 0
KFVS 111505Z 19010KT 27/17 A3014 RMK A01 T02700166  RH  055%=      5-min Rain = 0
KFVS 111510Z 19013KT 27/16 A3014 RMK A01 T02740163  RH  053%=      5-min Rain = 0
KFVS 111515Z 19012KT 28/16 A3014 RMK A01 T02750163  RH  053%=      5-min Rain = 0
KFVS 111520Z 19011G16KT 28/16 A3014 RMK A01 T02760164  RH  053%=      5-min Rain = 0
KFVS 111525Z 19013KT 28/16 A3014 RMK A01 T02790163  RH  052%=      5-min Rain = 0
KFVS 111530Z 18011KT 28/16 A3014 RMK A01 T02790162  RH  051%=      5-min Rain = 0
KFVS 111535Z 19010G15KT 28/16 A3014 RMK A01 T02810161  RH  051%=      5-min Rain = 0
KFVS 111540Z 18011KT 28/16 A3014 RMK A01 T02830161  RH  050%=      5-min Rain = 0
KFVS 111545Z 19011KT 28/16 A3014 RMK A01 T02840162  RH  050%=      5-min Rain = 0
KFVS 111550Z 20011KT 28/16 A3014 RMK A01 T02830162  RH  050%=      5-min Rain = 0
KFVS 111555Z 18011G16KT 29/16 A3014 RMK A01 T02860163  RH  050%=      5-min Rain = 0
KFVS 111600Z 18013KT 29/16 A3014 RMK A01 T02900161  RH  048%=      5-min Rain = 0
KFVS 111605Z 19011KT 29/16 A3014 RMK A01 T02910161  RH  048%=      5-min Rain = 0
KFVS 111610Z 18010G16KT 29/16 A3014 RMK A01 T02920161  RH  047%=      5-min Rain = 0
KFVS 111615Z 18010KT 30/16 A3014 RMK A01 T02950162  RH  047%=      5-min Rain = 0
KFVS 111620Z 19010KT 30/16 A3014 RMK A01 T02960162  RH  046%=      5-min Rain = 0
KFVS 111625Z 18012KT 30/16 A3014 RMK A01 T02990159  RH  045%=      5-min Rain = 0
KFVS 111630Z 17011KT 30/16 A3014 RMK A01 T03000158  RH  044%=      5-min Rain = 0
KFVS 111635Z 17012G17KT 31/16 A3014 RMK A01 T03060155  RH  042%=      5-min Rain = 0
KFVS 111640Z 18010G15KT 30/16 A3014 RMK A01 T03030158  RH  044%=      5-min Rain = 0
KFVS 111645Z 18011G17KT 30/15 A3014 RMK A01 T03040153  RH  042%=      5-min Rain = 0
KFVS 111650Z 17011KT 31/15 A3014 RMK A01 T03060152  RH  041%=      5-min Rain = 0
KFVS 111655Z 17011KT 30/15 A3014 RMK A01 T03040149  RH  041%=      5-min Rain = 0
KFVS 111700Z 18013G18KT 31/15 A3014 RMK A01 T03070152  RH  041%=      5-min Rain = 0
KFVS 111705Z 16011G16KT 31/15 A3014 RMK A01 T03110147  RH  039%=      5-min Rain = 0
KFVS 111710Z 18011G16KT 31/15 A3014 RMK A01 T03110149  RH  039%=      5-min Rain = 0
KFVS 111715Z 16013G19KT 31/15 A3013 RMK A01 T03140145  RH  038%=      5-min Rain = 0
KFVS 111720Z 18011G16KT 32/14 A3013 RMK A01 T03180142  RH  036%=      5-min Rain = 0
KFVS 111725Z 16013KT 32/14 A3013 RMK A01 T03210139  RH  035%=      5-min Rain = 0
KFVS 111730Z 15012G17KT 32/13 A3013 RMK A01 T03190130  RH  033%=      5-min Rain = 0
KFVS 111735Z 19015G20KT 32/13 A3013 RMK A01 T03180126  RH  032%=      5-min Rain = 0
KFVS 111740Z 18012G17KT 32/13 A3013 RMK A01 T03210130  RH  033%=      5-min Rain = 0
KFVS 111745Z 17013G18KT 33/13 A3012 RMK A01 T03250133  RH  033%=      5-min Rain = 0
KFVS 111750Z 16013G20KT 32/12 A3012 RMK A01 T03240121  RH  030%=      5-min Rain = 0
KFVS 111755Z 15015G22KT 33/12 A3012 RMK A01 T03290121  RH  029%=      5-min Rain = 0
KFVS 111800Z 17017G22KT 33/12 A3012 RMK A01 T03300115  RH  028%=      5-min Rain = 0
KFVS 111805Z 16015G21KT 33/11 A3012 RMK A01 T03290109  RH  027%=      5-min Rain = 0
KFVS 111810Z 15015G21KT 33/12 A3011 RMK A01 T03290119  RH  029%=      5-min Rain = 0
KFVS 111815Z 16014G20KT 33/12 A3011 RMK A01 T03310120  RH  029%=      5-min Rain = 0
KFVS 111820Z 16014G19KT 33/12 A3011 RMK A01 T03320115  RH  028%=      5-min Rain = 0
KFVS 111825Z 17016G22KT 33/12 A3011 RMK A01 T03320118  RH  028%=      5-min Rain = 0
KFVS 111830Z 17016G23KT 34/12 A3011 RMK A01 T03350117  RH  027%=      5-min Rain = 0
KFVS 111835Z 17015G20KT 34/12 A3011 RMK A01 T03400116  RH  027%=      5-min Rain = 0
KFVS 111840Z 16013G21KT 34/11 A301 RMK A01 T03350108  RH  026%=      5-min Rain = 0
KFVS 111845Z 15015G20KT 33/11 A301 RMK A01 T03330106  RH  026%=      5-min Rain = 0
KFVS 111850Z 17015G21KT 33/11 A301 RMK A01 T03340112  RH  027%=      5-min Rain = 0
KFVS 111855Z 17015G22KT 34/11 A3009 RMK A01 T03350110  RH  026%=      5-min Rain = 0
KFVS 111900Z 16017G23KT 34/09 A301 RMK A01 T03380092  RH  023%=      5-min Rain = 0
KFVS 111905Z 15015G21KT 34/10 A3009 RMK A01 T03370103  RH  025%=      5-min Rain = 0
KFVS 111910Z 15018G26KT 34/10 A3009 RMK A01 T03360101  RH  024%=      5-min Rain = 0
KFVS 111915Z 16018G23KT 34/10 A3009 RMK A01 T03390097  RH  023%=      5-min Rain = 0
KFVS 111920Z 17016G25KT 34/10 A3009 RMK A01 T03400103  RH  024%=      5-min Rain = 0
KFVS 111925Z 17016G27KT 34/10 A3009 RMK A01 T03380103  RH  025%=      5-min Rain = 0
KFVS 111930Z 17017G23KT 34/10 A3009 RMK A01 T03390100  RH  024%=      5-min Rain = 0
KFVS 111935Z 15014G21KT 34/10 A3008 RMK A01 T03390095  RH  023%=      5-min Rain = 0
KFVS 111940Z 15016G22KT 34/09 A3008 RMK A01 T03410093  RH  023%=      5-min Rain = 0
KFVS 111945Z 15015KT 34/10 A3008 RMK A01 T03400098  RH  024%=      5-min Rain = 0
KFVS 111950Z 15014G20KT 34/09 A3007 RMK A01 T03390094  RH  023%=      5-min Rain = 0
KFVS 111955Z 14015G21KT 34/09 A3007 RMK A01 T03420093  RH  023%=      5-min Rain = 0
KFVS 112000Z 16016G23KT 34/10 A3007 RMK A01 T03410100  RH  024%=      5-min Rain = 0
KFVS 112005Z 17014G22KT 34/11 A3007 RMK A01 T03400105  RH  025%=      5-min Rain = 0
KFVS 112010Z 16015G21KT 34/10 A3006 RMK A01 T03410103  RH  024%=      5-min Rain = 0
KFVS 112015Z 16017G23KT 34/11 A3006 RMK A01 T03400105  RH  025%=      5-min Rain = 0
KFVS 112020Z 17016G23KT 34/11 A3006 RMK A01 T03390108  RH  025%=      5-min Rain = 0
KFVS 112025Z 16013KT 34/11 A3006 RMK A01 T03400106  RH  025%=      5-min Rain = 0
KFVS 112030Z 15017G22KT 34/11 A3005 RMK A01 T03420106  RH  025%=      5-min Rain = 0
KFVS 112035Z 16016G22KT 35/11 A3005 RMK A01 T03460108  RH  024%=      5-min Rain = 0
KFVS 112040Z 17012G17KT 34/11 A3005 RMK A01 T03440108  RH  025%=      5-min Rain = 0
KFVS 112045Z 17014G25KT 34/11 A3005 RMK A01 T03430106  RH  024%=      5-min Rain = 0
KFVS 112050Z 15012G21KT 34/11 A3005 RMK A01 T03400108  RH  025%=      5-min Rain = 0
KFVS 112055Z 15013G21KT 34/11 A3005 RMK A01 T03440109  RH  025%=      5-min Rain = 0
KFVS 112100Z 16015G26KT 34/11 A3004 RMK A01 T03430108  RH  025%=      5-min Rain = 0
KFVS 112105Z 15013KT 34/11 A3004 RMK A01 T03440106  RH  024%=      5-min Rain = 0
KFVS 112110Z 16012G21KT 34/10 A3004 RMK A01 T03430104  RH  024%=      5-min Rain = 0
KFVS 112115Z 15014G22KT 35/11 A3004 RMK A01 T03470107  RH  024%=      5-min Rain = 0
KFVS 112120Z 18014G20KT 35/11 A3003 RMK A01 T03520109  RH  024%=      5-min Rain = 0
KFVS 112125Z 17008G15KT 35/11 A3003 RMK A01 T03490107  RH  024%=      5-min Rain = 0
KFVS 112130Z 14012KT 35/11 A3003 RMK A01 T03460106  RH  024%=      5-min Rain = 0
KFVS 112135Z 17012G19KT 35/11 A3003 RMK A01 T03470106  RH  024%=      5-min Rain = 0
KFVS 112140Z 16016G22KT 35/10 A3003 RMK A01 T03490102  RH  023%=      5-min Rain = 0
KFVS 112145Z 16014G19KT 35/10 A3002 RMK A01 T03460102  RH  023%=      5-min Rain = 0
KFVS 112150Z 16014G21KT 35/10 A3002 RMK A01 T03490104  RH  023%=      5-min Rain = 0
KFVS 112155Z 17008G15KT 35/11 A3002 RMK A01 T03470105  RH  024%=      5-min Rain = 0
KFVS 112200Z 17015KT 35/11 A3002 RMK A01 T03470107  RH  024%=      5-min Rain = 0
KFVS 112205Z 16011G17KT 35/11 A3002 RMK A01 T03460106  RH  024%=      5-min Rain = 0
KFVS 112210Z 15013KT 35/11 A3001 RMK A01 T03450107  RH  024%=      5-min Rain = 0
KFVS 112215Z 17011G18KT 35/11 A3001 RMK A01 T03460107  RH  024%=      5-min Rain = 0
KFVS 112220Z 17013G18KT 34/11 A3001 RMK A01 T03430106  RH  024%=      5-min Rain = 0
KFVS 112225Z 16013KT 34/11 A3001 RMK A01 T03420106  RH  025%=      5-min Rain = 0
KFVS 112230Z 17010G19KT 34/11 A3001 RMK A01 T03410105  RH  024%=      5-min Rain = 0
KFVS 112235Z 16014G20KT 34/11 A3001 RMK A01 T03430107  RH  025%=      5-min Rain = 0
KFVS 112240Z 16011KT 34/11 A3001 RMK A01 T03380105  RH  025%=      5-min Rain = 0
KFVS 112245Z 16011KT 34/11 A3001 RMK A01 T03360107  RH  026%=      5-min Rain = 0
KFVS 112250Z 15015KT 34/11 A30 RMK A01 T03420108  RH  025%=      5-min Rain = 0
KFVS 112255Z 15010G15KT 35/11 A30 RMK A01 T03450108  RH  024%=      5-min Rain = 0
KFVS 112300Z 18013G19KT 35/11 A30 RMK A01 T03500108  RH  024%=      5-min Rain = 0
KFVS 112305Z 18014KT 35/11 A30 RMK A01 T03480109  RH  024%=      5-min Rain = 0
KFVS 112310Z 16012G17KT 35/11 A30 RMK A01 T03490108  RH  024%=      5-min Rain = 0
KFVS 112315Z 17014G19KT 35/11 A30 RMK A01 T03480112  RH  025%=      5-min Rain = 0
KFVS 112320Z 17012G18KT 35/11 A30 RMK A01 T03480110  RH  024%=      5-min Rain = 0
KFVS 112325Z 17014KT 35/11 A30 RMK A01 T03450110  RH  025%=      5-min Rain = 0
KFVS 112330Z 16012KT 34/11 A30 RMK A01 T03390108  RH  025%=      5-min Rain = 0
KFVS 112335Z 16012KT 34/11 A30 RMK A01 T03350107  RH  026%=      5-min Rain = 0
KFVS 112340Z 16010KT 33/11 A30 RMK A01 T03340108  RH  026%=      5-min Rain = 0
KFVS 112345Z 15012G17KT 34/11 A30 RMK A01 T03360108  RH  026%=      5-min Rain = 0
KFVS 112350Z 16013KT 34/11 A30 RMK A01 T03390109  RH  025%=      5-min Rain = 0
KFVS 112355Z 18013KT 34/11 A30 RMK A01 T03380108  RH  025%=      5-min Rain = 0
KFVS 120000Z 16010KT 34/11 A30 RMK A01 T03370106  RH  025%=      5-min Rain = 0
KFVS 120005Z 16011KT 34/11 A30 RMK A01 T03370105  RH  025%=      5-min Rain = 0
KFVS 120010Z 16010KT 33/10 A30 RMK A01 T03340104  RH  025%=      5-min Rain = 0
KFVS 120015Z 16012KT 33/11 A30 RMK A01 T03330107  RH  026%=      5-min Rain = 0
KFVS 120020Z 15012KT 33/11 A30 RMK A01 T03310107  RH  026%=      5-min Rain = 0
KFVS 120025Z 15012KT 33/11 A30 RMK A01 T03310107  RH  026%=      5-min Rain = 0
KFVS 120030Z 16010KT 33/11 A30 RMK A01 T03310108  RH  027%=      5-min Rain = 0
KFVS 120035Z 16010KT 33/11 A30 RMK A01 T03320107  RH  026%=      5-min Rain = 0
KFVS 120040Z 15011KT 33/11 A30 RMK A01 T03340105  RH  025%=      5-min Rain = 0
KFVS 120045Z 16012KT 34/11 A30 RMK A01 T03350105  RH  025%=      5-min Rain = 0
KFVS 120050Z 16011KT 33/11 A30 RMK A01 T03320105  RH  026%=      5-min Rain = 0
KFVS 120055Z 16012KT 33/11 A3001 RMK A01 T03300106  RH  026%=      5-min Rain = 0
KFVS 120100Z 17013KT 33/11 A3001 RMK A01 T03290107  RH  027%=      5-min Rain = 0
KFVS 120105Z 17012KT 33/11 A3001 RMK A01 T03280105  RH  026%=      5-min Rain = 0
KFVS 120110Z 17011KT 33/10 A3001 RMK A01 T03280104  RH  026%=      5-min Rain = 0
KFVS 120115Z 17011KT 33/11 A3001 RMK A01 T03270107  RH  027%=      5-min Rain = 0
KFVS 120120Z 16010KT 33/11 A3001 RMK A01 T03260105  RH  027%=      5-min Rain = 0
KFVS 120125Z 16010KT 32/10 A3001 RMK A01 T03240104  RH  027%=      5-min Rain = 0
KFVS 120130Z 16009KT 32/10 A3001 RMK A01 T03230102  RH  027%=      5-min Rain = 0
KFVS 120135Z 16008KT 32/10 A3001 RMK A01 T03210104  RH  027%=      5-min Rain = 0
KFVS 120140Z 16008KT 32/11 A3001 RMK A01 T03190105  RH  028%=      5-min Rain = 0
KFVS 120145Z 16008KT 32/10 A3001 RMK A01 T03170104  RH  028%=      5-min Rain = 0
KFVS 120150Z 16007KT 32/10 A3002 RMK A01 T03150103  RH  028%=      5-min Rain = 0
KFVS 120155Z 16007KT 31/10 A3002 RMK A01 T03110103  RH  029%=      5-min Rain = 0
KFVS 120200Z 16006KT 31/10 A3002 RMK A01 T03080103  RH  029%=      5-min Rain = 0
KFVS 120205Z 16006KT 31/10 A3002 RMK A01 T03050103  RH  029%=      5-min Rain = 0
KFVS 120210Z 15006KT 30/10 A3002 RMK A01 T03030102  RH  030%=      5-min Rain = 0
KFVS 120215Z 15006KT 30/10 A3002 RMK A01 T03000102  RH  030%=      5-min Rain = 0
KFVS 120220Z 15007KT 30/10 A3002 RMK A01 T02950102  RH  031%=      5-min Rain = 0
KFVS 120225Z 14007KT 29/10 A3003 RMK A01 T02940102  RH  031%=      5-min Rain = 0
KFVS 120230Z 13006KT 29/10 A3003 RMK A01 T02910102  RH  032%=      5-min Rain = 0
KFVS 120235Z 13007KT 29/10 A3003 RMK A01 T02920102  RH  032%=      5-min Rain = 0
KFVS 120240Z 14007KT 29/11 A3003 RMK A01 T02920105  RH  032%=      5-min Rain = 0
KFVS 120245Z 14007KT 29/11 A3004 RMK A01 T02930107  RH  033%=      5-min Rain = 0
KFVS 120250Z 14008KT 29/11 A3004 RMK A01 T02930109  RH  033%=      5-min Rain = 0
KFVS 120255Z 13008KT 30/11 A3004 RMK A01 T02950110  RH  033%=      5-min Rain = 0
KFVS 120300Z 13008KT 30/11 A3004 RMK A01 T02950111  RH  033%=      5-min Rain = 0
KFVS 120305Z 13008KT 30/11 A3004 RMK A01 T02960112  RH  033%=      5-min Rain = 0
KFVS 120310Z 14008KT 30/11 A3004 RMK A01 T02970113  RH  033%=      5-min Rain = 0
KFVS 120315Z 14008KT 30/11 A3004 RMK A01 T02960113  RH  033%=      5-min Rain = 0
KFVS 120320Z 14009KT 30/11 A3005 RMK A01 T02950113  RH  034%=      5-min Rain = 0
KFVS 120325Z 14008KT 29/11 A3005 RMK A01 T02940114  RH  034%=      5-min Rain = 0
KFVS 120330Z 14009KT 29/12 A3005 RMK A01 T02930115  RH  034%=      5-min Rain = 0
KFVS 120335Z 14008KT 29/12 A3006 RMK A01 T02930115  RH  035%=      5-min Rain = 0
KFVS 120340Z 14008KT 29/12 A3006 RMK A01 T02920116  RH  035%=      5-min Rain = 0
KFVS 120345Z 14008KT 29/12 A3006 RMK A01 T02910116  RH  035%=      5-min Rain = 0
KFVS 120350Z 13008KT 29/12 A3006 RMK A01 T02920115  RH  035%=      5-min Rain = 0
KFVS 120355Z 13007KT 29/12 A3006 RMK A01 T02920115  RH  035%=      5-min Rain = 0
KFVS 120400Z 13007KT 29/12 A3006 RMK A01 T02900115  RH  035%=      5-min Rain = 0
KFVS 120405Z 13008KT 29/12 A3006 RMK A01 T02900115  RH  035%=      5-min Rain = 0
KFVS 120410Z 13009KT 29/11 A3006 RMK A01 T02900114  RH  035%=      5-min Rain = 0
KFVS 120415Z 14009KT 29/11 A3006 RMK A01 T02910113  RH  034%=      5-min Rain = 0
KFVS 120420Z 14010KT 29/11 A3006 RMK A01 T02910112  RH  034%=      5-min Rain = 0
KFVS 120425Z 14010KT 29/11 A3006 RMK A01 T02910112  RH  034%=      5-min Rain = 0
KFVS 120430Z 14010KT 29/11 A3006 RMK A01 T02900113  RH  034%=      5-min Rain = 0
KFVS 120435Z 14010KT 29/11 A3006 RMK A01 T02890113  RH  035%=      5-min Rain = 0
KFVS 120440Z 14011KT 29/11 A3006 RMK A01 T02890114  RH  035%=      5-min Rain = 0
KFVS 120445Z 14011KT 29/11 A3006 RMK A01 T02880114  RH  035%=      5-min Rain = 0
KFVS 120450Z 14011KT 29/11 A3006 RMK A01 T02880114  RH  035%=      5-min Rain = 0
KFVS 120455Z 14010KT 29/11 A3006 RMK A01 T02870114  RH  036%=      5-min Rain = 0

Page generated in 0.0091 seconds.